createdAt,value
2022-09-12T00:02:04.834Z,96421.56
2022-09-12T00:04:33.443Z,96552.78
2022-09-12T00:07:00.353Z,96440.75
2022-09-12T00:09:27.513Z,96472.72
2022-09-12T00:11:54.609Z,96547.88
2022-09-12T00:14:21.349Z,96548.72
2022-09-12T00:16:49.661Z,96562.41
2022-09-12T00:19:16.276Z,96489.91
2022-09-12T00:21:43.860Z,96426.16
2022-09-12T00:24:11.034Z,96378.66
2022-09-12T00:26:37.808Z,96469.09
2022-09-12T00:29:05.173Z,96354.50
2022-09-12T00:31:33.563Z,96482.09
2022-09-12T00:34:01.762Z,96532.97
2022-09-12T00:36:30.504Z,96531.09
2022-09-12T00:38:59.316Z,96420.94
2022-09-12T00:41:30.109Z,96518.34
2022-09-12T00:44:24.260Z,96377.06
2022-09-12T00:46:50.977Z,96539.78
2022-09-12T00:49:58.954Z,96469.16
2022-09-12T00:52:46.161Z,96531.22
2022-09-12T00:55:16.971Z,96535.72
2022-09-12T00:58:21.335Z,96436.72
2022-09-12T01:00:48.197Z,96547.81
2022-09-12T01:03:17.418Z,96521.00
2022-09-12T01:06:09.860Z,96540.78
2022-09-12T01:08:41.122Z,96352.06
2022-09-12T01:11:09.841Z,96526.16
2022-09-12T01:13:37.116Z,96506.34
2022-09-12T01:16:06.063Z,96528.78
2022-09-12T01:18:55.654Z,96533.97
2022-09-12T01:21:53.019Z,96521.84
2022-09-12T01:24:49.566Z,96521.09
2022-09-12T01:27:35.268Z,96509.88
2022-09-12T01:30:14.491Z,96513.47
2022-09-12T01:32:54.852Z,96470.31
2022-09-12T01:35:33.167Z,96423.75
2022-09-12T01:38:26.743Z,96522.94
2022-09-12T01:41:03.996Z,96512.56
2022-09-12T01:43:48.099Z,96498.78
2022-09-12T01:46:27.341Z,96477.22
2022-09-12T01:49:06.982Z,96494.41
2022-09-12T01:51:33.783Z,96505.59
2022-09-12T01:54:06.927Z,96455.69
2022-09-12T01:56:39.076Z,96313.50
2022-09-12T01:59:26.884Z,96499.59
2022-09-12T02:02:03.869Z,96449.59
2022-09-12T02:04:37.307Z,96299.78
2022-09-12T02:07:11.173Z,96317.84
2022-09-12T02:09:46.895Z,96469.53
2022-09-12T02:12:17.929Z,96504.25
2022-09-12T02:14:50.231Z,96370.72
2022-09-12T02:17:21.043Z,96421.56
2022-09-12T02:19:57.613Z,96293.03
2022-09-12T02:22:27.868Z,96301.56
2022-09-12T02:24:59.416Z,96456.59
2022-09-12T02:27:30.201Z,96454.06
2022-09-12T02:29:57.219Z,96471.28
2022-09-12T02:32:30.784Z,96465.22
2022-09-12T02:35:36.872Z,96468.63
2022-09-12T02:38:13.255Z,96448.81
2022-09-12T02:40:41.008Z,96301.53
2022-09-12T02:43:07.764Z,96456.59
2022-09-12T02:45:35.945Z,96434.13
2022-09-12T02:48:04.908Z,96438.41
2022-09-12T02:50:32.335Z,96373.84
2022-09-12T02:53:04.349Z,96310.09
2022-09-12T02:55:33.600Z,96452.19
2022-09-12T02:58:05.446Z,96284.28
2022-09-12T03:00:38.103Z,96327.34
2022-09-12T03:03:22.404Z,96316.13
2022-09-12T03:05:58.290Z,96395.47
2022-09-12T03:08:44.413Z,96460.91
2022-09-12T03:11:21.200Z,96464.41
2022-09-12T03:14:06.769Z,96456.66
2022-09-12T03:16:46.719Z,96460.94
2022-09-12T03:19:31.190Z,96441.13
2022-09-12T03:22:19.327Z,96456.66
2022-09-12T03:25:34.594Z,96451.41
2022-09-12T03:28:07.626Z,96441.97
2022-09-12T03:30:41.081Z,96455.81
2022-09-12T03:33:12.030Z,96448.88
2022-09-12T03:35:39.063Z,96298.13
2022-09-12T03:38:08.035Z,96452.41
2022-09-12T03:40:35.797Z,96320.63
2022-09-12T03:43:03.261Z,96438.63
2022-09-12T03:45:30.316Z,96408.50
2022-09-12T03:47:57.903Z,96437.84
2022-09-12T03:50:25.646Z,96452.47
2022-09-12T03:52:52.444Z,96446.44
2022-09-12T03:55:20.163Z,96432.59
2022-09-12T03:57:48.348Z,96453.44
2022-09-12T04:00:19.841Z,96462.91
2022-09-12T04:02:48.871Z,96462.06
2022-09-12T04:05:16.568Z,96442.16
2022-09-12T04:07:44.084Z,96455.91
2022-09-12T04:10:11.139Z,96420.56
2022-09-12T04:12:39.557Z,96445.63
2022-09-12T04:15:07.764Z,96337.97
2022-09-12T04:17:35.520Z,96425.81
2022-09-12T04:20:02.749Z,96283.66
2022-09-12T04:22:31.928Z,96330.16
2022-09-12T04:24:59.839Z,96405.91
2022-09-12T04:27:27.417Z,96419.69
2022-09-12T04:29:55.998Z,96308.56
2022-09-12T04:32:24.387Z,96435.28
2022-09-12T04:34:52.671Z,96373.22
2022-09-12T04:37:20.545Z,96361.22
2022-09-12T04:39:49.034Z,96437.03
2022-09-12T04:42:16.343Z,96443.09
2022-09-12T04:44:43.505Z,96275.06
2022-09-12T04:47:10.290Z,96462.91
2022-09-12T04:49:37.671Z,96465.41
2022-09-12T04:52:04.948Z,96427.50
2022-09-12T04:54:34.272Z,96423.19
2022-09-12T04:57:02.027Z,96425.72
2022-09-12T04:59:30.607Z,96465.47
2022-09-12T05:01:58.476Z,96429.25
2022-09-12T05:04:25.728Z,96449.94
2022-09-12T05:06:53.108Z,96438.97
2022-09-12T05:09:19.799Z,96447.53
2022-09-12T05:12:04.711Z,96438.78
2022-09-12T05:14:33.808Z,96464.59
2022-09-12T05:17:01.826Z,96363.78
2022-09-12T05:19:30.352Z,96470.59
2022-09-12T05:21:57.477Z,96468.09
2022-09-12T05:24:25.031Z,96385.38
2022-09-12T05:26:52.986Z,96466.44
2022-09-12T05:29:20.281Z,96449.13
2022-09-12T05:31:50.135Z,96467.25
2022-09-12T05:34:19.190Z,96359.38
2022-09-12T05:36:45.943Z,96468.91
2022-09-12T05:39:12.755Z,96455.13
2022-09-12T05:41:39.646Z,96505.13
2022-09-12T05:44:07.376Z,96491.34
2022-09-12T05:46:40.148Z,96494.81
2022-09-12T05:49:09.900Z,96489.53
2022-09-12T05:51:39.257Z,96483.53
2022-09-12T05:54:07.807Z,96479.25
2022-09-12T05:56:40.826Z,96479.22
2022-09-12T05:59:13.240Z,96503.41
2022-09-12T06:01:42.193Z,96480.13
2022-09-12T06:04:11.214Z,96470.69
2022-09-12T06:06:45.226Z,96390.34
2022-09-12T06:09:15.282Z,96409.16
2022-09-12T06:11:43.368Z,96484.03
2022-09-12T06:14:11.980Z,96398.59
2022-09-12T06:16:39.575Z,96343.34
2022-09-12T06:19:18.390Z,96482.78
2022-09-12T06:21:45.630Z,96485.53
2022-09-12T06:24:13.254Z,96391.59
2022-09-12T06:26:40.203Z,96473.50
2022-09-12T06:29:08.462Z,96476.97
2022-09-12T06:31:36.838Z,96485.59
2022-09-12T06:34:05.810Z,96474.28
2022-09-12T06:36:38.975Z,96479.28
2022-09-12T06:39:11.755Z,96480.91
2022-09-12T06:41:44.041Z,96484.22
2022-09-12T06:44:17.124Z,96478.00
2022-09-12T06:46:44.419Z,96464.16
2022-09-12T06:49:11.349Z,96482.94
2022-09-12T06:51:38.711Z,96460.44
2022-09-12T06:54:06.257Z,96426.78
2022-09-12T06:56:33.604Z,96466.19
2022-09-12T06:59:03.375Z,96342.97
2022-09-12T07:01:33.306Z,96473.63
2022-09-12T07:04:02.482Z,96485.53
2022-09-12T07:06:35.451Z,96370.03
2022-09-12T07:09:03.842Z,96470.41
2022-09-12T07:11:36.531Z,96309.31
2022-09-12T07:14:04.766Z,96386.31
2022-09-12T07:16:32.102Z,96417.78
2022-09-12T07:19:02.955Z,96401.09
2022-09-12T07:21:31.071Z,96325.84
2022-09-12T07:23:58.114Z,96456.25
2022-09-12T07:26:26.922Z,96332.19
2022-09-12T07:28:54.748Z,96458.09
2022-09-12T07:31:26.916Z,96317.09
2022-09-12T07:33:56.342Z,96422.50
2022-09-12T07:36:25.490Z,96396.41
2022-09-12T07:38:57.613Z,96414.75
2022-09-12T07:41:26.949Z,96319.19
2022-09-12T07:43:55.251Z,96446.78
2022-09-12T07:46:27.847Z,96385.41
2022-09-12T07:48:56.590Z,96407.41
2022-09-12T07:51:24.416Z,96458.94
2022-09-12T07:53:52.447Z,96473.16
2022-09-12T07:56:32.717Z,96394.72
2022-09-12T07:59:05.819Z,96461.25
2022-09-12T08:02:14.691Z,96309.06
2022-09-12T08:13:17.629Z,96430.97
2022-09-12T08:24:21.160Z,96374.88
2022-09-12T08:34:36.391Z,96472.03
2022-09-12T08:38:08.826Z,96472.59
2022-09-12T08:41:35.059Z,96419.81
2022-09-12T08:44:53.259Z,96478.22
2022-09-12T08:47:57.381Z,96490.28
2022-09-12T08:50:24.385Z,96352.03
2022-09-12T08:53:21.093Z,96487.03
2022-09-12T08:56:44.984Z,96449.41
2022-09-12T09:00:01.724Z,96480.56
2022-09-12T09:02:53.283Z,96481.81
2022-09-12T09:06:09.228Z,96399.94
2022-09-12T09:09:07.658Z,96471.53
2022-09-12T09:18:40.650Z,96427.16
2022-09-12T09:21:43.918Z,96349.47
2022-09-12T09:24:27.555Z,96337.91
2022-09-12T09:27:40.611Z,96321.13
2022-09-12T09:30:28.859Z,96454.00
2022-09-12T09:33:22.341Z,96352.53
2022-09-12T09:36:25.306Z,96405.53
2022-09-12T09:39:24.199Z,96454.53
2022-09-12T09:42:09.726Z,96450.59
2022-09-12T09:44:54.604Z,96343.94
2022-09-12T09:47:52.983Z,96361.53
2022-09-12T09:50:25.008Z,96357.06
2022-09-12T09:53:00.446Z,96335.72
2022-09-12T09:55:34.170Z,96300.34
2022-09-12T09:58:04.263Z,96335.94
2022-09-12T10:00:36.981Z,96391.53
2022-09-12T10:03:13.914Z,96434.03
2022-09-12T10:05:50.903Z,96328.84
2022-09-12T10:08:26.931Z,96376.47
2022-09-12T10:11:16.142Z,96420.59
2022-09-12T10:13:57.748Z,96410.00
2022-09-12T10:16:32.864Z,96420.72
2022-09-12T10:19:02.074Z,96414.41
2022-09-12T10:21:50.703Z,96416.41
2022-09-12T10:24:33.685Z,96393.19
2022-09-12T10:27:15.155Z,96405.31
2022-09-12T10:30:17.919Z,96407.34
2022-09-12T10:32:48.726Z,96399.72
2022-09-12T10:35:30.983Z,96406.28
2022-09-12T10:38:25.544Z,96414.34
2022-09-12T10:41:03.536Z,96398.03
2022-09-12T10:43:33.740Z,96416.03
2022-09-12T10:46:16.336Z,96409.44
2022-09-12T10:48:44.191Z,96397.06
2022-09-12T10:51:26.116Z,96396.88
2022-09-12T10:53:54.411Z,96376.53
2022-09-12T10:56:23.636Z,96401.59
2022-09-12T10:59:28.614Z,96402.72
2022-09-12T11:02:00.981Z,96406.38
2022-09-12T11:04:46.446Z,96385.22
2022-09-12T11:24:09.501Z,96368.31
2022-09-12T11:26:51.187Z,96356.00
2022-09-12T11:29:47.384Z,96381.59
2022-09-12T11:32:50.179Z,96378.22
2022-09-12T11:35:55.515Z,96311.69
2022-09-12T11:38:51.483Z,96371.91
2022-09-12T11:41:21.287Z,96373.34
2022-09-12T11:44:12.186Z,96262.03
2022-09-12T11:46:47.680Z,96387.03
2022-09-12T11:49:35.975Z,96349.81
2022-09-12T11:52:12.133Z,96366.16
2022-09-12T11:54:56.270Z,96381.34
2022-09-12T11:57:34.384Z,96385.72
2022-09-12T12:00:18.296Z,96332.78
2022-09-12T12:03:07.907Z,96276.47
2022-09-12T12:05:51.209Z,96389.16
2022-09-12T12:08:22.882Z,96348.34
2022-09-12T12:11:03.137Z,96392.38
2022-09-12T12:13:46.243Z,96389.94
2022-09-12T12:16:22.252Z,96380.38
2022-09-12T12:19:00.554Z,96327.56
2022-09-12T12:21:46.928Z,96385.13
2022-09-12T12:24:17.599Z,96387.13
2022-09-12T12:40:03.492Z,96372.19
2022-09-12T12:49:27.654Z,96305.94
2022-09-12T12:52:18.352Z,96351.94
2022-09-12T12:54:46.256Z,96355.00
2022-09-12T12:57:13.509Z,96348.72
2022-09-12T12:59:54.046Z,96335.13
2022-09-12T13:02:25.919Z,96326.47
2022-09-12T13:04:54.769Z,96348.72
2022-09-12T13:07:31.183Z,96331.84
2022-09-12T13:09:59.543Z,96288.81
2022-09-12T13:12:31.161Z,96333.47
2022-09-12T13:14:59.847Z,96345.47
2022-09-12T13:17:47.542Z,96308.56
2022-09-12T13:20:29.421Z,96331.28
2022-09-12T13:22:57.429Z,96334.38
2022-09-12T13:25:35.862Z,96307.91
2022-09-12T13:28:12.311Z,96326.22
2022-09-12T13:30:41.592Z,96314.19
2022-09-12T13:33:23.498Z,96333.44
2022-09-12T13:36:04.720Z,96328.31
2022-09-12T13:38:51.735Z,96333.63
2022-09-12T13:41:37.131Z,96338.28
2022-09-12T13:44:03.723Z,96325.97
2022-09-12T13:46:33.938Z,96317.72
2022-09-12T13:49:17.888Z,96303.91
2022-09-12T13:51:44.669Z,96237.00
2022-09-12T13:54:22.517Z,96312.19
2022-09-12T14:14:28.262Z,96293.13
2022-09-12T14:16:56.261Z,96301.44
2022-09-12T14:19:26.056Z,96313.69
2022-09-12T14:21:54.615Z,96267.56
2022-09-12T14:24:26.053Z,96276.94
2022-09-12T14:26:54.307Z,96249.41
2022-09-12T14:29:23.898Z,96314.72
2022-09-12T14:32:02.535Z,96305.28
2022-09-12T14:34:31.306Z,96294.38
2022-09-12T14:36:58.963Z,96232.28
2022-09-12T14:39:32.832Z,96297.38
2022-09-12T14:42:08.140Z,96269.72
2022-09-12T14:44:36.352Z,96281.38
2022-09-12T14:47:21.510Z,96280.06
2022-09-12T14:49:51.614Z,96293.13
2022-09-12T14:52:40.070Z,96291.31
2022-09-12T14:55:18.800Z,96292.63
2022-09-12T14:57:45.908Z,96293.31
2022-09-12T15:00:13.254Z,96290.97
2022-09-12T15:02:43.381Z,96295.38
2022-09-12T15:05:23.982Z,96297.09
2022-09-12T15:07:53.812Z,96302.09
2022-09-12T15:10:35.367Z,96301.94
2022-09-12T15:13:11.886Z,96291.56
2022-09-12T15:15:40.437Z,96263.72
2022-09-12T15:18:09.631Z,96283.03
2022-09-12T15:20:38.999Z,96291.09
2022-09-12T15:23:08.949Z,96277.53
2022-09-12T15:25:36.197Z,96282.25
2022-09-12T15:28:19.418Z,96276.72
2022-09-12T15:30:49.416Z,96280.66
2022-09-12T15:33:18.221Z,96235.19
2022-09-12T15:35:46.086Z,96265.75
2022-09-12T15:38:12.984Z,96256.00
2022-09-12T15:40:41.127Z,96170.72
2022-09-12T15:43:12.864Z,96270.44
2022-09-12T15:45:42.385Z,96230.44
2022-09-12T15:48:10.235Z,96266.47
2022-09-12T15:50:39.058Z,96217.84
2022-09-12T15:53:07.077Z,96279.63
2022-09-12T15:55:34.312Z,96201.13
2022-09-12T15:58:06.328Z,96267.16
2022-09-12T16:00:35.568Z,96266.81
2022-09-12T16:03:04.724Z,96273.06
2022-09-12T16:05:34.406Z,96238.34
2022-09-12T16:08:03.452Z,96253.28
2022-09-12T16:10:33.166Z,96178.31
2022-09-12T16:13:04.240Z,96256.16
2022-09-12T16:15:33.706Z,96241.81
2022-09-12T16:18:00.926Z,96233.47
2022-09-12T16:20:29.454Z,96186.66
2022-09-12T16:22:57.690Z,96159.66
2022-09-12T16:25:26.974Z,96194.47
2022-09-12T16:27:53.847Z,96199.03
2022-09-12T16:30:21.648Z,96219.66
2022-09-12T16:32:48.373Z,96216.72
2022-09-12T16:35:15.781Z,96214.53
2022-09-12T16:37:42.536Z,96179.03
2022-09-12T16:40:15.808Z,96211.97
2022-09-12T16:42:43.882Z,96206.19
2022-09-12T16:45:14.045Z,96121.69
2022-09-12T16:47:42.232Z,96037.28
2022-09-12T16:50:10.010Z,96093.47
2022-09-12T16:52:39.825Z,96066.13
2022-09-12T16:55:10.058Z,96173.94
2022-09-12T16:57:37.651Z,96047.97
2022-09-12T17:00:08.416Z,96174.28
2022-09-12T17:02:37.306Z,96148.75
2022-09-12T17:05:04.870Z,96160.97
2022-09-12T17:07:31.993Z,96124.91
2022-09-12T17:09:59.754Z,96049.91
2022-09-12T17:12:28.330Z,96039.53
2022-09-12T17:14:58.670Z,96154.84
2022-09-12T17:17:25.973Z,96083.16
2022-09-12T17:19:53.915Z,96058.44
2022-09-12T17:22:20.926Z,96116.16
2022-09-12T17:24:47.760Z,96060.56
2022-09-12T17:27:15.664Z,96180.84
2022-09-12T17:29:42.332Z,96057.38
2022-09-12T17:32:14.382Z,96131.56
2022-09-12T17:34:44.994Z,96137.69
2022-09-12T17:37:13.570Z,96102.50
2022-09-12T17:39:42.779Z,96170.59
2022-09-12T17:42:09.795Z,96193.44
2022-09-12T17:44:50.449Z,96190.63
2022-09-12T17:47:17.288Z,96186.09
2022-09-12T17:49:45.661Z,96188.59
2022-09-12T17:52:13.312Z,96136.38
2022-09-12T17:54:40.195Z,96089.06
2022-09-12T17:57:08.265Z,96131.41
2022-09-12T17:59:38.020Z,96095.53
2022-09-12T18:02:16.273Z,96088.38
2022-09-12T18:04:45.986Z,96078.13
2022-09-12T18:07:18.177Z,96010.00
2022-09-12T18:09:47.794Z,96123.13
2022-09-12T18:12:19.953Z,96179.19
2022-09-12T18:14:47.902Z,96174.56
2022-09-12T18:17:15.889Z,96187.13
2022-09-12T18:19:44.538Z,96184.88
2022-09-12T18:22:12.895Z,96168.88
2022-09-12T18:24:43.910Z,96199.22
2022-09-12T18:27:12.040Z,96187.88
2022-09-12T18:29:40.176Z,96190.59
2022-09-12T18:32:09.946Z,96192.81
2022-09-12T18:34:38.785Z,96134.25
2022-09-12T18:37:08.025Z,96137.13
2022-09-12T18:39:37.978Z,96176.03
2022-09-12T18:42:06.506Z,96067.75
2022-09-12T18:44:51.980Z,96181.94
2022-09-12T18:47:38.498Z,96183.00
2022-09-12T18:50:06.532Z,96201.22
2022-09-12T18:52:33.018Z,96197.00
2022-09-12T18:54:59.580Z,96195.44
2022-09-12T18:57:26.101Z,96198.19
2022-09-12T18:59:53.120Z,96201.09
2022-09-12T19:02:19.767Z,96202.09
2022-09-12T19:04:46.620Z,96204.97
2022-09-12T19:07:14.282Z,96197.31
2022-09-12T19:09:43.302Z,96199.13
2022-09-12T19:12:11.783Z,96203.63
2022-09-12T19:14:40.569Z,96209.81
2022-09-12T19:17:07.966Z,96203.88
2022-09-12T19:19:40.368Z,96207.59
2022-09-12T19:22:11.236Z,96207.69
2022-09-12T19:24:38.547Z,96211.38
2022-09-12T19:27:07.713Z,96214.97
2022-09-12T19:29:36.580Z,96214.19
2022-09-12T19:32:03.691Z,96213.47
2022-09-12T19:34:33.314Z,96214.28
2022-09-12T19:37:00.484Z,96216.19
2022-09-12T19:39:28.879Z,96219.75
2022-09-12T19:41:58.642Z,96225.13
2022-09-12T19:44:27.536Z,96220.09
2022-09-12T19:46:56.353Z,96224.72
2022-09-12T19:49:24.817Z,96223.91
2022-09-12T19:51:51.649Z,96227.44
2022-09-12T19:54:18.628Z,96226.78
2022-09-12T19:56:45.863Z,96225.19
2022-09-12T19:59:14.621Z,96216.50
2022-09-12T20:01:41.970Z,96217.19
2022-09-12T20:04:10.919Z,96216.31
2022-09-12T20:06:39.983Z,96218.81
2022-09-12T20:09:07.574Z,96207.44
2022-09-12T20:11:34.543Z,96214.41
2022-09-12T20:14:02.699Z,96216.31
2022-09-12T20:16:33.396Z,96220.97
2022-09-12T20:19:07.589Z,96208.25
2022-09-12T20:21:37.896Z,96209.13
2022-09-12T20:24:08.388Z,96212.78
2022-09-12T20:26:35.997Z,96205.16
2022-09-12T20:29:05.971Z,96199.34
2022-09-12T20:31:37.834Z,96194.25
2022-09-12T20:34:06.924Z,96201.41
2022-09-12T20:36:36.467Z,96198.13
2022-09-12T20:39:06.094Z,96197.31
2022-09-12T20:41:34.463Z,96197.56
2022-09-12T20:44:03.917Z,96189.91
2022-09-12T20:46:33.540Z,96193.44
2022-09-12T20:49:00.241Z,96193.47
2022-09-12T20:51:30.406Z,96185.97
2022-09-12T20:54:00.431Z,96198.25
2022-09-12T20:56:28.431Z,96195.00
2022-09-12T20:58:56.065Z,96193.38
2022-09-12T21:01:24.688Z,96186.31
2022-09-12T21:03:52.772Z,96181.09
2022-09-12T21:06:20.762Z,96187.13
2022-09-12T21:08:50.059Z,96188.06
2022-09-12T21:11:18.631Z,96190.69
2022-09-12T21:13:48.063Z,96187.16
2022-09-12T21:16:17.324Z,96181.94
2022-09-12T21:18:44.776Z,96188.06
2022-09-12T21:21:14.911Z,96182.84
2022-09-12T21:23:42.419Z,96185.44
2022-09-12T21:26:10.090Z,96178.44
2022-09-12T21:28:39.462Z,96184.56
2022-09-12T21:31:07.421Z,96182.97
2022-09-12T21:33:36.362Z,96189.25
2022-09-12T21:36:07.007Z,96191.81
2022-09-12T21:38:37.360Z,96189.28
2022-09-12T21:41:08.427Z,96193.66
2022-09-12T21:43:35.816Z,96193.72
2022-09-12T21:46:04.312Z,96189.28
2022-09-12T21:48:32.338Z,96193.69
2022-09-12T21:50:59.807Z,96191.06
2022-09-12T21:53:28.542Z,96189.44
2022-09-12T21:56:05.270Z,96193.09
2022-09-12T21:58:32.706Z,96195.00
2022-09-12T22:01:01.437Z,96195.91
2022-09-12T22:03:29.625Z,96204.72
2022-09-12T22:06:00.538Z,96201.38
2022-09-12T22:08:34.202Z,96204.19
2022-09-12T22:11:03.674Z,96210.34
2022-09-12T22:13:32.430Z,96200.00
2022-09-12T22:16:00.625Z,96200.81
2022-09-12T22:18:29.392Z,96193.94
2022-09-12T22:21:12.460Z,96192.34
2022-09-12T22:23:59.719Z,96192.34
2022-09-12T22:26:28.402Z,96192.31
2022-09-12T22:28:57.372Z,96192.44
2022-09-12T22:31:27.071Z,96195.94
2022-09-12T22:33:57.041Z,96185.56
2022-09-12T22:36:31.146Z,96179.53
2022-09-12T22:38:59.860Z,96169.13
2022-09-12T22:41:26.602Z,96160.38
2022-09-12T22:43:53.379Z,96162.19
2022-09-12T22:46:21.207Z,96167.66
2022-09-12T22:48:48.137Z,96158.41
2022-09-12T22:51:15.320Z,96161.25
2022-09-12T22:53:42.626Z,96161.41
2022-09-12T22:56:09.800Z,96166.75
2022-09-12T22:58:37.384Z,96164.28
2022-09-12T23:01:08.046Z,96162.53
2022-09-12T23:03:36.953Z,96163.34
2022-09-12T23:06:07.018Z,96164.19
2022-09-12T23:08:36.102Z,96165.06
2022-09-12T23:11:14.833Z,96163.28
2022-09-12T23:13:43.141Z,96169.25
2022-09-12T23:16:14.759Z,96168.16
2022-09-12T23:18:41.550Z,96162.91
2022-09-12T23:21:10.049Z,96163.06
2022-09-12T23:23:39.447Z,96156.19
2022-09-12T23:26:10.882Z,96164.84
2022-09-12T23:28:39.568Z,96167.31
2022-09-12T23:31:07.496Z,96161.22
2022-09-12T23:33:34.340Z,96164.75
2022-09-12T23:36:02.403Z,96152.75
2022-09-12T23:38:30.332Z,96147.16
2022-09-12T23:40:58.378Z,96151.47
2022-09-12T23:43:26.785Z,96142.69
2022-09-12T23:45:53.511Z,96138.38
2022-09-12T23:48:20.526Z,96136.88
2022-09-12T23:50:48.338Z,96138.84
2022-09-12T23:53:17.602Z,96136.44
2022-09-12T23:55:45.859Z,96137.47
2022-09-12T23:58:13.381Z,96138.41
